createdAt,value
2019-01-30T00:02:15.600Z,49.79
2019-01-30T00:04:45.972Z,50.47
2019-01-30T00:07:11.621Z,50.55
2019-01-30T00:09:42.800Z,51.31
2019-01-30T00:12:11.231Z,50.82
2019-01-30T00:14:38.623Z,50.19
2019-01-30T00:17:07.234Z,50.18
2019-01-30T00:19:34.237Z,49.55
2019-01-30T00:22:02.490Z,50.04
2019-01-30T00:24:29.566Z,51.53
2019-01-30T00:26:56.616Z,51.50
2019-01-30T00:29:23.616Z,51.57
2019-01-30T00:31:51.072Z,51.90
2019-01-30T00:34:20.445Z,51.62
2019-01-30T00:36:47.465Z,50.56
2019-01-30T00:39:14.820Z,50.16
2019-01-30T00:41:41.756Z,49.88
2019-01-30T00:44:08.779Z,50.21
2019-01-30T00:46:35.800Z,50.59
2019-01-30T00:49:02.817Z,50.92
2019-01-30T00:51:30.101Z,51.21
2019-01-30T00:53:57.443Z,50.73
2019-01-30T00:56:27.887Z,51.09
2019-01-30T00:58:54.909Z,49.76
2019-01-30T01:01:25.807Z,50.19
2019-01-30T01:03:52.765Z,49.43
2019-01-30T01:06:19.805Z,48.28
2019-01-30T01:08:46.737Z,47.14
2019-01-30T01:11:13.791Z,48.61
2019-01-30T01:13:40.746Z,48.27
2019-01-30T01:16:07.779Z,49.00
2019-01-30T01:18:37.547Z,49.24
2019-01-30T01:21:06.865Z,49.39
2019-01-30T01:23:33.493Z,47.38
2019-01-30T01:26:00.855Z,47.30
2019-01-30T01:28:27.838Z,47.57
2019-01-30T01:30:55.165Z,48.55
2019-01-30T01:33:22.180Z,47.96
2019-01-30T01:35:49.447Z,48.07
2019-01-30T01:38:16.846Z,48.29
2019-01-30T01:40:47.241Z,49.36
2019-01-30T01:43:14.580Z,48.90
2019-01-30T01:45:41.917Z,49.16
2019-01-30T01:48:08.962Z,49.70
2019-01-30T01:50:37.592Z,50.42
2019-01-30T01:53:04.535Z,50.99
2019-01-30T01:55:31.981Z,50.54
2019-01-30T01:57:58.969Z,49.57
2019-01-30T02:00:35.341Z,50.28
2019-01-30T02:02:57.410Z,50.96
2019-01-30T02:05:26.448Z,50.76
2019-01-30T02:07:55.113Z,51.79
2019-01-30T02:10:23.707Z,51.31
2019-01-30T02:12:51.139Z,51.13
2019-01-30T02:15:18.185Z,50.12
2019-01-30T02:17:45.515Z,49.71
2019-01-30T02:20:14.828Z,50.30
2019-01-30T02:22:42.953Z,49.61
2019-01-30T02:25:10.378Z,49.45
2019-01-30T02:27:37.382Z,50.02
2019-01-30T02:30:04.416Z,50.26
2019-01-30T02:32:31.503Z,50.06
2019-01-30T02:34:58.593Z,49.37
2019-01-30T02:37:25.625Z,49.45
2019-01-30T02:39:52.702Z,49.55
2019-01-30T02:42:21.481Z,50.31
2019-01-30T02:44:50.586Z,50.24
2019-01-30T02:47:17.253Z,50.07
2019-01-30T02:49:44.265Z,51.44
2019-01-30T02:52:11.300Z,51.57
2019-01-30T02:54:38.527Z,51.34
2019-01-30T02:57:08.916Z,51.28
2019-01-30T02:59:35.945Z,51.42
2019-01-30T03:02:03.444Z,51.85
2019-01-30T03:04:30.846Z,50.91
2019-01-30T03:06:57.969Z,50.55
2019-01-30T03:09:25.390Z,51.30
2019-01-30T03:11:54.873Z,52.28
2019-01-30T03:14:23.066Z,52.14
2019-01-30T03:16:50.046Z,51.99
2019-01-30T03:19:17.040Z,50.54
2019-01-30T03:21:48.743Z,50.97
2019-01-30T03:24:18.253Z,51.49
2019-01-30T03:26:45.397Z,52.23
2019-01-30T03:29:12.468Z,52.27
2019-01-30T03:31:39.451Z,51.66
2019-01-30T03:34:06.491Z,52.37
2019-01-30T03:36:33.510Z,52.68
2019-01-30T03:39:00.900Z,52.79
2019-01-30T03:41:31.586Z,52.20
2019-01-30T03:44:01.145Z,52.32
2019-01-30T03:46:26.811Z,53.32
2019-01-30T03:48:55.971Z,52.88
2019-01-30T03:51:22.984Z,52.32
2019-01-30T03:53:50.039Z,52.48
2019-01-30T03:56:17.069Z,53.00
2019-01-30T03:58:46.572Z,52.42
2019-01-30T04:01:13.644Z,53.08
2019-01-30T04:03:43.703Z,53.24
2019-01-30T04:06:11.344Z,52.90
2019-01-30T04:08:38.815Z,51.82
2019-01-30T04:11:07.770Z,51.35
2019-01-30T04:13:35.012Z,51.04
2019-01-30T04:16:02.059Z,50.75
2019-01-30T04:18:29.447Z,50.57
2019-01-30T04:20:56.534Z,51.21
2019-01-30T04:23:23.574Z,51.58
2019-01-30T04:25:50.517Z,51.50
2019-01-30T04:30:50.110Z,51.25
2019-01-30T04:33:17.317Z,51.07
2019-01-30T04:35:46.564Z,51.15
2019-01-30T04:38:13.614Z,51.63
2019-01-30T04:40:40.588Z,50.75
2019-01-30T04:43:07.883Z,49.96
2019-01-30T04:45:37.979Z,49.19
2019-01-30T04:48:05.008Z,49.10
2019-01-30T04:50:32.193Z,49.98
2019-01-30T04:52:59.638Z,50.10
2019-01-30T04:55:26.862Z,48.87
2019-01-30T04:57:54.098Z,48.54
2019-01-30T05:00:21.210Z,49.30
2019-01-30T05:02:49.668Z,48.93
2019-01-30T05:05:16.748Z,48.88
2019-01-30T05:07:43.785Z,49.44
2019-01-30T05:10:11.257Z,48.50
2019-01-30T05:12:38.839Z,48.32
2019-01-30T05:15:05.897Z,48.21
2019-01-30T05:17:33.197Z,48.57
2019-01-30T05:20:00.223Z,48.78
2019-01-30T05:22:33.779Z,48.75
2019-01-30T05:25:01.169Z,48.67
2019-01-30T05:27:28.193Z,47.68
2019-01-30T05:29:55.096Z,48.14
2019-01-30T05:32:22.222Z,49.28
2019-01-30T05:34:49.215Z,48.66
2019-01-30T05:37:16.494Z,48.22
2019-01-30T05:39:43.742Z,46.91
2019-01-30T05:42:10.983Z,46.58
2019-01-30T05:44:38.395Z,47.22
2019-01-30T05:47:05.387Z,47.29
2019-01-30T05:49:32.660Z,48.11
2019-01-30T05:51:59.646Z,46.91
2019-01-30T05:54:26.638Z,47.68
2019-01-30T05:56:53.553Z,46.77
2019-01-30T05:59:20.859Z,48.29
2019-01-30T06:01:49.421Z,47.86
2019-01-30T06:04:16.406Z,47.56
2019-01-30T06:06:43.390Z,47.64
2019-01-30T06:09:10.354Z,47.63
2019-01-30T06:11:37.298Z,47.17
2019-01-30T06:14:04.185Z,46.08
2019-01-30T06:16:31.070Z,45.68
2019-01-30T06:18:58.395Z,47.64
2019-01-30T06:21:25.592Z,47.29
2019-01-30T06:23:52.465Z,46.37
2019-01-30T06:26:20.610Z,46.02
2019-01-30T06:28:47.520Z,45.67
2019-01-30T06:31:14.745Z,46.36
2019-01-30T06:33:41.693Z,46.16
2019-01-30T06:36:08.593Z,45.44
2019-01-30T06:38:35.546Z,46.05
2019-01-30T06:41:03.045Z,45.35
2019-01-30T06:43:29.961Z,45.57
2019-01-30T06:45:57.222Z,44.50
2019-01-30T06:48:24.474Z,43.89
2019-01-30T06:50:51.602Z,44.12
2019-01-30T06:53:18.567Z,44.55
2019-01-30T06:55:45.732Z,43.48
2019-01-30T06:58:16.210Z,44.97
2019-01-30T07:00:42.382Z,45.25
2019-01-30T07:03:09.274Z,44.24
2019-01-30T07:05:36.174Z,44.79
2019-01-30T07:08:03.284Z,45.25
2019-01-30T07:10:31.280Z,45.14
2019-01-30T07:12:58.220Z,46.43
2019-01-30T07:15:25.149Z,45.95
2019-01-30T07:17:52.036Z,45.04
2019-01-30T07:20:19.260Z,44.18
2019-01-30T07:22:46.148Z,44.54
2019-01-30T07:25:13.153Z,45.54
2019-01-30T07:27:40.133Z,46.41
2019-01-30T07:30:07.070Z,45.87
2019-01-30T07:32:42.120Z,45.86
2019-01-30T07:35:02.535Z,45.75
2019-01-30T07:37:29.535Z,44.96
2019-01-30T07:39:56.481Z,44.20
2019-01-30T07:42:25.071Z,44.54
2019-01-30T07:44:52.225Z,44.42
2019-01-30T07:47:19.106Z,43.61
2019-01-30T07:49:46.020Z,43.92
2019-01-30T07:52:16.036Z,44.19
2019-01-30T07:54:43.378Z,44.46
2019-01-30T07:57:10.588Z,44.69
2019-01-30T07:59:37.852Z,44.45
2019-01-30T08:02:04.796Z,43.78
2019-01-30T08:04:31.710Z,43.18
2019-01-30T08:07:03.185Z,43.16
2019-01-30T08:09:30.514Z,42.89
2019-01-30T08:11:57.415Z,44.43
2019-01-30T08:14:24.304Z,46.65
2019-01-30T08:16:51.557Z,45.78
2019-01-30T08:19:18.777Z,44.46
2019-01-30T08:21:45.914Z,43.81
2019-01-30T08:24:13.183Z,43.10
2019-01-30T08:26:40.281Z,42.80
2019-01-30T08:29:07.231Z,42.42
2019-01-30T08:31:34.986Z,43.80
2019-01-30T08:34:02.245Z,42.63
2019-01-30T08:36:29.391Z,43.98
2019-01-30T08:38:56.293Z,44.19
2019-01-30T08:41:23.522Z,45.16
2019-01-30T08:43:50.417Z,46.37
2019-01-30T08:46:17.378Z,45.14
2019-01-30T08:48:44.598Z,46.11
2019-01-30T08:51:11.737Z,43.79
2019-01-30T08:53:40.383Z,42.67
2019-01-30T08:56:07.537Z,44.20
2019-01-30T08:58:34.498Z,44.80
2019-01-30T09:01:01.533Z,44.56
2019-01-30T09:03:28.581Z,44.87
2019-01-30T09:05:57.671Z,43.34
2019-01-30T09:08:26.313Z,45.59
2019-01-30T09:10:54.024Z,46.61
2019-01-30T09:13:28.184Z,46.53
2019-01-30T09:15:57.279Z,45.02
2019-01-30T09:18:24.273Z,43.78
2019-01-30T09:20:51.300Z,44.62
2019-01-30T09:23:19.371Z,45.48
2019-01-30T09:25:46.346Z,44.81
2019-01-30T09:28:13.623Z,44.43
2019-01-30T09:30:40.902Z,42.65
2019-01-30T09:33:07.917Z,43.08
2019-01-30T09:35:34.925Z,44.74
2019-01-30T09:38:02.469Z,43.28
2019-01-30T09:40:32.134Z,43.20
2019-01-30T09:42:59.460Z,43.28
2019-01-30T09:45:30.661Z,45.28
2019-01-30T09:47:58.328Z,45.66
2019-01-30T09:50:26.106Z,46.72
2019-01-30T09:52:54.664Z,46.12
2019-01-30T09:55:21.625Z,46.14
2019-01-30T09:57:48.815Z,46.74
2019-01-30T10:00:15.730Z,43.73
2019-01-30T10:02:42.779Z,44.91
2019-01-30T10:05:09.970Z,43.72
2019-01-30T10:07:37.030Z,43.26
2019-01-30T10:10:03.988Z,43.41
2019-01-30T10:12:31.159Z,43.55
2019-01-30T10:14:58.057Z,45.31
2019-01-30T10:17:25.009Z,45.91
2019-01-30T10:19:52.012Z,45.76
2019-01-30T10:22:18.993Z,45.11
2019-01-30T10:24:46.971Z,43.66
2019-01-30T10:27:14.974Z,43.66
2019-01-30T10:29:41.983Z,44.96
2019-01-30T10:32:08.920Z,44.65
2019-01-30T10:34:36.160Z,44.68
2019-01-30T10:37:03.706Z,44.36
2019-01-30T10:39:31.058Z,44.92
2019-01-30T10:41:58.009Z,44.94
2019-01-30T10:44:24.944Z,45.46
2019-01-30T10:46:52.178Z,45.52
2019-01-30T10:49:19.075Z,45.89
2019-01-30T10:51:46.049Z,44.30
2019-01-30T10:54:13.222Z,45.58
2019-01-30T10:56:40.245Z,45.52
2019-01-30T10:59:09.850Z,45.98
2019-01-30T11:01:44.967Z,45.64
2019-01-30T11:04:12.252Z,45.51
2019-01-30T11:06:39.426Z,45.48
2019-01-30T11:09:06.450Z,46.38
2019-01-30T11:11:37.195Z,45.78
2019-01-30T11:14:06.999Z,45.62
2019-01-30T11:16:46.294Z,45.72
2019-01-30T11:19:12.596Z,45.45
2019-01-30T11:21:41.654Z,45.60
2019-01-30T11:24:08.676Z,43.77
2019-01-30T11:26:36.508Z,43.63
2019-01-30T11:31:51.584Z,44.28
2019-01-30T11:34:21.920Z,45.21
2019-01-30T11:36:52.944Z,44.98
2019-01-30T11:39:22.311Z,44.83
2019-01-30T11:41:52.057Z,45.27
2019-01-30T11:44:21.538Z,45.29
2019-01-30T11:47:04.123Z,45.56
2019-01-30T11:49:27.710Z,45.68
2019-01-30T11:51:56.355Z,46.38
2019-01-30T11:54:23.562Z,46.32
2019-01-30T11:56:50.456Z,45.74
2019-01-30T11:59:17.383Z,46.44
2019-01-30T12:01:46.559Z,45.77
2019-01-30T12:04:18.129Z,46.22
2019-01-30T12:06:41.852Z,45.09
2019-01-30T12:09:08.862Z,43.73
2019-01-30T12:11:36.329Z,43.14
2019-01-30T12:14:05.124Z,43.56
2019-01-30T12:16:34.879Z,44.93
2019-01-30T12:19:18.521Z,43.20
2019-01-30T12:21:48.181Z,44.66
2019-01-30T12:24:27.390Z,44.36
2019-01-30T12:26:57.225Z,45.57
2019-01-30T12:29:24.347Z,45.58
2019-01-30T12:31:52.528Z,45.47
2019-01-30T12:34:28.266Z,45.07
2019-01-30T12:37:03.865Z,42.75
2019-01-30T12:39:31.212Z,43.58
2019-01-30T12:41:58.499Z,40.96
2019-01-30T12:44:33.584Z,39.21
2019-01-30T12:47:00.005Z,40.69
2019-01-30T12:49:45.176Z,40.66
2019-01-30T12:52:13.253Z,40.67
2019-01-30T12:54:44.124Z,41.62
2019-01-30T12:57:12.678Z,41.34
2019-01-30T12:59:40.204Z,43.26
2019-01-30T13:02:10.228Z,42.48
2019-01-30T13:04:38.784Z,41.63
2019-01-30T13:07:05.792Z,41.61
2019-01-30T13:09:32.770Z,42.82
2019-01-30T13:11:59.749Z,43.42
2019-01-30T13:14:26.735Z,44.61
2019-01-30T13:16:53.703Z,44.97
2019-01-30T13:19:22.943Z,44.48
2019-01-30T13:21:51.623Z,42.90
2019-01-30T13:24:21.540Z,43.29
2019-01-30T13:26:49.021Z,45.33
2019-01-30T13:29:19.131Z,45.72
2019-01-30T13:31:47.780Z,44.96
2019-01-30T13:34:14.763Z,45.80
2019-01-30T13:36:43.835Z,45.78
2019-01-30T13:39:10.670Z,45.62
2019-01-30T13:41:40.548Z,45.51
2019-01-30T13:44:18.220Z,46.14
2019-01-30T13:46:45.356Z,46.65
2019-01-30T13:49:15.064Z,46.39
2019-01-30T13:51:43.631Z,46.60
2019-01-30T13:54:24.192Z,46.13
2019-01-30T13:56:42.323Z,46.93
2019-01-30T13:59:09.337Z,46.07
2019-01-30T14:01:36.368Z,46.75
2019-01-30T14:04:03.310Z,46.25
2019-01-30T14:06:30.661Z,46.03
2019-01-30T14:09:00.672Z,46.59
2019-01-30T14:11:29.595Z,45.17
2019-01-30T14:13:57.428Z,45.79
2019-01-30T14:16:24.657Z,46.75
2019-01-30T14:18:51.627Z,46.93
2019-01-30T14:21:19.827Z,45.69
2019-01-30T14:24:02.059Z,46.15
2019-01-30T14:26:29.347Z,46.18
2019-01-30T14:28:56.303Z,46.42
2019-01-30T14:31:25.360Z,45.75
2019-01-30T14:33:53.590Z,45.84
2019-01-30T14:36:27.371Z,45.73
2019-01-30T14:38:54.486Z,45.92
2019-01-30T14:44:27.975Z,46.67
2019-01-30T14:46:55.058Z,46.61
2019-01-30T14:49:22.355Z,44.96
2019-01-30T14:51:51.738Z,45.10
2019-01-30T14:54:18.659Z,46.81
2019-01-30T14:56:47.163Z,47.13
2019-01-30T14:59:14.098Z,47.01
2019-01-30T15:01:42.527Z,46.50
2019-01-30T15:04:12.155Z,46.78
2019-01-30T15:06:39.165Z,47.92
2019-01-30T15:09:09.254Z,48.07
2019-01-30T15:11:38.682Z,47.05
2019-01-30T15:14:11.095Z,46.79
2019-01-30T15:17:16.676Z,46.94
2019-01-30T15:19:20.632Z,47.28
2019-01-30T15:21:51.866Z,46.97
2019-01-30T15:24:42.114Z,47.18
2019-01-30T15:26:53.633Z,46.23
2019-01-30T15:29:20.653Z,47.59
2019-01-30T15:31:49.027Z,48.22
2019-01-30T15:34:16.367Z,48.82
2019-01-30T15:36:47.555Z,47.69
2019-01-30T15:39:14.612Z,47.11
2019-01-30T15:41:42.096Z,46.27
2019-01-30T15:44:18.978Z,47.63
2019-01-30T15:46:51.058Z,47.71
2019-01-30T15:49:31.156Z,46.85
2019-01-30T15:51:58.596Z,47.46
2019-01-30T15:57:13.373Z,47.56
2019-01-30T15:59:40.554Z,48.53
2019-01-30T16:02:18.339Z,47.79
2019-01-30T16:04:46.680Z,47.05
2019-01-30T16:07:16.816Z,47.29
2019-01-30T16:09:46.243Z,47.17
2019-01-30T16:12:13.530Z,47.46
2019-01-30T16:14:40.531Z,47.30
2019-01-30T16:17:07.511Z,47.55
2019-01-30T16:19:34.711Z,46.06
2019-01-30T16:22:04.508Z,47.66
2019-01-30T16:24:48.987Z,48.04
2019-01-30T16:27:15.365Z,46.74
2019-01-30T16:29:45.623Z,46.35
2019-01-30T16:32:12.657Z,46.24
2019-01-30T16:34:41.414Z,44.93
2019-01-30T16:37:08.902Z,45.58
2019-01-30T16:39:38.836Z,45.80
2019-01-30T16:42:06.044Z,45.51
2019-01-30T16:47:25.624Z,42.51
2019-01-30T16:49:52.822Z,42.62
2019-01-30T16:52:43.239Z,41.71
2019-01-30T16:55:20.574Z,41.53
2019-01-30T16:57:38.871Z,41.61
2019-01-30T17:00:13.448Z,41.87
2019-01-30T17:02:43.709Z,41.89
2019-01-30T17:05:12.546Z,42.01
2019-01-30T17:10:38.333Z,42.31
2019-01-30T17:13:06.360Z,42.43
2019-01-30T17:15:33.824Z,42.13
2019-01-30T17:20:53.193Z,42.66
2019-01-30T17:26:12.572Z,42.65
2019-01-30T17:28:40.251Z,42.66
2019-01-30T17:31:08.470Z,41.01
2019-01-30T17:33:37.033Z,41.23
2019-01-30T17:36:06.043Z,40.76
2019-01-30T17:38:33.049Z,40.60
2019-01-30T17:41:06.142Z,40.58
2019-01-30T17:43:36.077Z,42.94
2019-01-30T17:46:13.251Z,44.01
2019-01-30T17:51:16.371Z,44.02
2019-01-30T17:54:00.720Z,42.76
2019-01-30T17:57:19.863Z,41.90
2019-01-30T17:59:23.775Z,42.61
2019-01-30T18:01:51.336Z,42.69
2019-01-30T18:04:27.132Z,41.18
2019-01-30T18:07:42.290Z,41.16
2019-01-30T18:09:58.080Z,41.23
2019-01-30T18:12:32.744Z,41.18
2019-01-30T18:15:00.931Z,41.11
2019-01-30T18:17:29.846Z,40.53
2019-01-30T18:20:04.364Z,39.80
2019-01-30T18:22:44.456Z,39.83
2019-01-30T18:25:11.849Z,40.39
2019-01-30T18:27:41.820Z,40.48
2019-01-30T18:30:09.412Z,40.58
2019-01-30T18:32:37.067Z,39.50
2019-01-30T18:35:04.123Z,40.49
2019-01-30T18:37:34.224Z,40.46
2019-01-30T18:40:01.241Z,40.45
2019-01-30T18:42:31.569Z,40.36
2019-01-30T18:45:02.920Z,40.96
2019-01-30T18:47:31.143Z,41.06
2019-01-30T18:49:59.878Z,41.29
2019-01-30T18:52:27.148Z,39.85
2019-01-30T18:54:54.155Z,39.75
2019-01-30T18:57:39.372Z,40.61
2019-01-30T19:00:03.489Z,40.75
2019-01-30T19:02:32.054Z,41.66
2019-01-30T19:05:00.758Z,41.39
2019-01-30T19:07:29.323Z,41.29
2019-01-30T19:09:56.295Z,40.76
2019-01-30T19:12:26.550Z,40.90
2019-01-30T19:14:56.194Z,41.15
2019-01-30T19:17:23.176Z,41.26
2019-01-30T19:19:53.449Z,41.09
2019-01-30T19:22:23.505Z,41.13
2019-01-30T19:24:53.226Z,41.18
2019-01-30T19:27:38.928Z,40.70
2019-01-30T19:30:21.510Z,40.45
2019-01-30T19:32:51.960Z,40.89
2019-01-30T19:35:25.384Z,41.41
2019-01-30T19:38:02.547Z,41.30
2019-01-30T19:40:31.579Z,41.73
2019-01-30T19:48:54.386Z,40.92
2019-01-30T19:56:58.685Z,41.48
2019-01-30T20:02:21.713Z,41.86
2019-01-30T20:04:52.062Z,41.66
2019-01-30T20:10:17.072Z,41.44
2019-01-30T20:12:49.063Z,41.87
2019-01-30T20:15:16.116Z,41.66
2019-01-30T20:17:45.207Z,41.91
2019-01-30T20:20:13.819Z,41.03
2019-01-30T20:22:44.323Z,42.44
2019-01-30T20:25:11.280Z,42.87
2019-01-30T20:27:42.560Z,42.63
2019-01-30T20:30:11.198Z,41.79
2019-01-30T20:32:38.281Z,41.04
2019-01-30T20:35:05.424Z,41.10
2019-01-30T20:37:33.709Z,42.02
2019-01-30T20:40:05.683Z,41.61
2019-01-30T20:42:36.212Z,41.86
2019-01-30T20:45:03.499Z,40.83
2019-01-30T20:47:30.650Z,41.18
2019-01-30T20:49:57.632Z,41.36
2019-01-30T20:52:29.851Z,41.52
2019-01-30T20:54:59.953Z,42.11
2019-01-30T21:00:15.155Z,42.44
2019-01-30T21:02:45.363Z,42.08
2019-01-30T21:05:14.069Z,42.40
2019-01-30T21:07:41.796Z,41.43
2019-01-30T21:10:14.365Z,41.85
2019-01-30T21:12:41.749Z,42.25
2019-01-30T21:15:08.761Z,41.62
2019-01-30T21:17:35.716Z,41.77
2019-01-30T21:20:02.967Z,41.89
2019-01-30T21:22:29.885Z,41.33
2019-01-30T21:25:00.842Z,41.88
2019-01-30T21:27:28.545Z,41.52
2019-01-30T21:29:55.768Z,41.62
2019-01-30T21:32:25.093Z,40.70
2019-01-30T21:34:53.279Z,40.19
2019-01-30T21:37:20.590Z,39.17
2019-01-30T21:39:47.728Z,39.62
2019-01-30T21:42:14.661Z,39.70
2019-01-30T21:44:42.002Z,39.49
2019-01-30T21:47:08.902Z,40.37
2019-01-30T21:49:36.289Z,40.33
2019-01-30T21:52:05.258Z,39.85
2019-01-30T21:54:32.359Z,38.16
2019-01-30T21:56:59.340Z,38.88
2019-01-30T21:59:26.313Z,37.90
2019-01-30T22:01:53.712Z,38.31
2019-01-30T22:04:20.652Z,37.89
2019-01-30T22:06:47.806Z,38.52
2019-01-30T22:09:14.667Z,38.35
2019-01-30T22:11:42.010Z,39.51
2019-01-30T22:14:09.177Z,39.40
2019-01-30T22:16:36.133Z,41.04
2019-01-30T22:19:03.142Z,39.81
2019-01-30T22:21:30.079Z,40.15
2019-01-30T22:24:05.283Z,39.65
2019-01-30T22:26:27.968Z,39.87
2019-01-30T22:28:54.878Z,40.61
2019-01-30T22:31:22.130Z,41.46
2019-01-30T22:33:49.253Z,43.54
2019-01-30T22:36:16.261Z,44.70
2019-01-30T22:38:43.218Z,45.16
2019-01-30T22:41:10.122Z,43.28
2019-01-30T22:43:37.720Z,41.60
2019-01-30T22:46:04.714Z,41.45
2019-01-30T22:48:32.104Z,41.05
2019-01-30T22:51:00.050Z,41.61
2019-01-30T22:53:27.235Z,42.55
2019-01-30T22:55:54.224Z,41.65
2019-01-30T22:58:23.227Z,42.44
2019-01-30T23:00:51.967Z,43.35
2019-01-30T23:03:20.932Z,42.64
2019-01-30T23:05:47.808Z,44.82
2019-01-30T23:08:22.891Z,44.97
2019-01-30T23:10:43.411Z,44.51
2019-01-30T23:13:10.349Z,43.33
2019-01-30T23:15:37.566Z,42.88
2019-01-30T23:18:04.433Z,43.56
2019-01-30T23:20:31.714Z,47.16
2019-01-30T23:22:59.032Z,47.12
2019-01-30T23:25:25.966Z,46.06
2019-01-30T23:27:53.273Z,47.24
2019-01-30T23:30:21.025Z,47.63
2019-01-30T23:32:48.346Z,47.74
2019-01-30T23:35:15.525Z,47.21
2019-01-30T23:37:42.512Z,47.34
2019-01-30T23:40:09.545Z,44.42
2019-01-30T23:42:36.502Z,43.55
2019-01-30T23:45:03.642Z,43.30
2019-01-30T23:47:30.593Z,43.56
2019-01-30T23:49:57.516Z,42.97
2019-01-30T23:52:24.516Z,42.14
2019-01-30T23:54:51.398Z,42.16
2019-01-30T23:57:18.325Z,42.40
2019-01-30T23:59:45.247Z,41.49
